Time;durP1;ratioP1;P1;durP2;ratioP2;P2;SDS_P1;SDS_P2;PMS_P1;PMS_P2;Temp;Humidity;BMP_temperature;BMP_pressure;BME280_temperature;BME280_humidity;BME280_pressure;Samples;Min_cycle;Max_cycle;Signal;HPM_P1;HPM_P2
2023/03/14 00:00:05;;;;;;;;;;;17.00;63.00;;;;;;5039544;28;1425;-67
2023/03/14 00:02:31;;;;;;;;;;;17.00;63.10;;;;;;5037732;28;1361;-66
2023/03/14 00:04:56;;;;;;;;;;;17.00;63.00;;;;;;5042012;28;1275;-66
2023/03/14 00:07:24;;;;;;;;;;;17.00;63.10;;;;;;5040823;28;907;-66
2023/03/14 00:09:50;;;;;;;;;;;17.00;63.00;;;;;;5041026;28;1248;-66
2023/03/14 00:12:15;;;;;;;;;;;17.00;63.10;;;;;;5040131;28;1950;-66
2023/03/14 00:14:42;;;;;;;;;;;17.00;63.10;;;;;;5040542;28;979;-66
2023/03/14 00:17:07;;;;;;;;;;;17.00;63.10;;;;;;5037980;28;880;-67
2023/03/14 00:19:33;;;;;;;;;;;17.00;63.10;;;;;;5043468;28;1290;-67
2023/03/14 00:21:58;;;;;;;;;;;17.00;63.10;;;;;;5039430;28;1014;-67
2023/03/14 00:24:24;;;;;;;;;;;17.00;63.10;;;;;;5040046;28;1290;-67
2023/03/14 00:26:49;;;;;;;;;;;17.00;63.10;;;;;;5041494;28;947;-66
2023/03/14 00:29:15;;;;;;;;;;;17.00;63.10;;;;;;5040150;28;911;-66
2023/03/14 00:31:40;;;;;;;;;;;17.00;63.10;;;;;;5038115;28;1960;-67
2023/03/14 00:34:06;;;;;;;;;;;16.90;63.10;;;;;;5041974;28;1257;-67
2023/03/14 00:36:31;;;;;;;;;;;16.90;63.10;;;;;;5042072;28;842;-67
2023/03/14 00:38:57;;;;;;;;;;;16.90;63.10;;;;;;5045180;28;1648;-66
2023/03/14 00:41:25;;;;;;;;;;;17.00;63.20;;;;;;5042911;28;1053;-67
2023/03/14 00:43:50;;;;;;;;;;;16.90;63.10;;;;;;5040870;28;1404;-67
2023/03/14 00:46:16;;;;;;;;;;;16.90;63.10;;;;;;5039020;28;895;-68
2023/03/14 00:48:41;;;;;;;;;;;16.90;63.20;;;;;;5037871;28;951;-68
2023/03/14 00:51:07;;;;;;;;;;;16.90;63.20;;;;;;5044406;28;1073;-68
2023/03/14 00:53:36;;;;;;;;;;;16.90;63.20;;;;;;5041894;28;1910;-68
2023/03/14 00:56:03;;;;;;;;;;;16.90;63.20;;;;;;5037949;28;839;-67
2023/03/14 00:58:28;;;;;;;;;;;16.90;63.20;;;;;;5046407;28;937;-68
2023/03/14 01:00:54;;;;;;;;;;;16.90;63.20;;;;;;5039219;28;927;-68
2023/03/14 01:03:19;;;;;;;;;;;16.90;63.20;;;;;;5035563;28;1421;-69
2023/03/14 01:05:44;;;;;;;;;;;16.90;63.20;;;;;;5040863;28;901;-68
2023/03/14 01:08:11;;;;;;;;;;;16.90;63.20;;;;;;5038224;28;808;-68
2023/03/14 01:10:40;;;;;;;;;;;16.90;63.20;;;;;;5040449;28;923;-69
2023/03/14 01:13:05;;;;;;;;;;;16.90;63.20;;;;;;5041097;28;1914;-66
2023/03/14 01:15:34;;;;;;;;;;;16.90;63.20;;;;;;5040079;28;1407;-67
2023/03/14 01:17:59;;;;;;;;;;;16.90;63.30;;;;;;5038232;28;920;-66
2023/03/14 01:20:25;;;;;;;;;;;16.90;63.20;;;;;;5036533;28;868;-67
2023/03/14 01:22:50;;;;;;;;;;;16.90;63.30;;;;;;5039523;28;1352;-66
2023/03/14 01:25:16;;;;;;;;;;;16.90;63.30;;;;;;5040284;28;906;-67
2023/03/14 01:27:42;;;;;;;;;;;16.90;63.30;;;;;;5037203;28;848;-67
2023/03/14 01:30:07;;;;;;;;;;;16.90;63.30;;;;;;5046502;28;866;-67
2023/03/14 01:32:33;;;;;;;;;;;16.90;63.30;;;;;;5038115;28;1984;-66
2023/03/14 01:34:58;;;;;;;;;;;16.90;63.30;;;;;;5040480;28;1026;-66
2023/03/14 01:37:24;;;;;;;;;;;16.90;63.30;;;;;;5040827;28;1344;-66
2023/03/14 01:39:49;;;;;;;;;;;16.90;63.30;;;;;;5039502;28;837;-66
2023/03/14 01:42:15;;;;;;;;;;;16.90;63.40;;;;;;5038135;28;1338;-68
2023/03/14 01:44:53;;;;;;;;;;;16.90;63.30;;;;;;5036961;28;833;-68
2023/03/14 01:47:19;;;;;;;;;;;16.90;63.30;;;;;;5036084;28;997;-67
2023/03/14 01:49:45;;;;;;;;;;;16.90;63.40;;;;;;5041341;28;878;-67
2023/03/14 01:52:19;;;;;;;;;;;16.90;63.40;;;;;;5037778;28;1957;-67
2023/03/14 01:54:46;;;;;;;;;;;16.90;63.40;;;;;;5037128;28;903;-67
2023/03/14 01:57:16;;;;;;;;;;;16.90;63.40;;;;;;5037372;28;804;-67
2023/03/14 01:59:42;;;;;;;;;;;16.90;63.40;;;;;;5036824;28;952;-67
2023/03/14 02:02:09;;;;;;;;;;;16.90;63.40;;;;;;5036584;28;1205;-67
2023/03/14 02:04:35;;;;;;;;;;;16.90;63.40;;;;;;5036300;28;839;-68
2023/03/14 02:07:05;;;;;;;;;;;16.90;63.40;;;;;;5035261;28;1154;-67
2023/03/14 02:09:31;;;;;;;;;;;16.90;63.40;;;;;;5040143;28;998;-67
2023/03/14 02:11:56;;;;;;;;;;;16.90;63.40;;;;;;5027387;28;1914;-66
2023/03/14 02:14:25;;;;;;;;;;;16.90;63.50;;;;;;5035301;28;1432;-66
2023/03/14 02:16:50;;;;;;;;;;;16.90;63.40;;;;;;5036102;28;802;-67
2023/03/14 02:19:17;;;;;;;;;;;16.90;63.40;;;;;;5038573;28;802;-66
2023/03/14 02:21:51;;;;;;;;;;;16.90;63.40;;;;;;5035703;28;868;-66
2023/03/14 02:24:22;;;;;;;;;;;16.90;63.40;;;;;;5043708;28;1655;-66
2023/03/14 02:27:06;;;;;;;;;;;16.90;63.40;;;;;;5040384;28;788;-67
2023/03/14 02:29:32;;;;;;;;;;;16.90;63.50;;;;;;5037805;28;800;-66
2023/03/14 02:31:57;;;;;;;;;;;16.90;63.50;;;;;;5038551;28;1898;-66
2023/03/14 02:34:23;;;;;;;;;;;16.90;63.50;;;;;;5046208;28;1389;-67
2023/03/14 02:36:48;;;;;;;;;;;16.90;63.50;;;;;;5046145;28;1347;-67
2023/03/14 02:39:15;;;;;;;;;;;16.90;63.50;;;;;;5042908;28;895;-67
2023/03/14 02:41:42;;;;;;;;;;;16.90;63.50;;;;;;5049379;28;1110;-67
2023/03/14 02:44:07;;;;;;;;;;;16.90;63.50;;;;;;5041112;28;1354;-67
2023/03/14 02:46:33;;;;;;;;;;;16.80;63.40;;;;;;5038689;28;793;-67
2023/03/14 02:49:02;;;;;;;;;;;16.90;63.50;;;;;;5041577;28;955;-67
2023/03/14 02:51:28;;;;;;;;;;;16.80;63.40;;;;;;5043420;28;835;-67
2023/03/14 02:53:53;;;;;;;;;;;16.90;63.50;;;;;;5040119;28;1894;-68
2023/03/14 02:56:19;;;;;;;;;;;16.80;63.40;;;;;;5043073;28;859;-67
2023/03/14 02:58:44;;;;;;;;;;;16.90;63.50;;;;;;5041835;28;1275;-68
2023/03/14 03:01:09;;;;;;;;;;;16.90;63.50;;;;;;5042954;28;1306;-67
2023/03/14 03:03:35;;;;;;;;;;;16.80;64.20;;;;;;5043398;28;1256;-67
2023/03/14 03:06:00;;;;;;;;;;;16.90;63.50;;;;;;5043903;28;1044;-67
2023/03/14 03:08:26;;;;;;;;;;;16.80;63.40;;;;;;5041267;28;821;-67
2023/03/14 03:10:52;;;;;;;;;;;16.80;63.50;;;;;;5039916;28;1379;-67
2023/03/14 03:13:17;;;;;;;;;;;16.80;63.50;;;;;;5041400;28;1950;-67
2023/03/14 03:15:43;;;;;;;;;;;16.80;63.50;;;;;;5042210;28;969;-67
2023/03/14 03:18:08;;;;;;;;;;;16.80;63.50;;;;;;5037514;28;1276;-67
2023/03/14 03:20:34;;;;;;;;;;;16.90;63.50;;;;;;5041175;28;1441;-67
2023/03/14 03:22:59;;;;;;;;;;;16.80;63.50;;;;;;5045913;28;1619;-67
2023/03/14 03:25:25;;;;;;;;;;;16.80;63.50;;;;;;5049117;28;1424;-67
2023/03/14 03:27:50;;;;;;;;;;;16.80;63.50;;;;;;5051146;28;1260;-67
2023/03/14 03:30:16;;;;;;;;;;;16.80;63.50;;;;;;5044649;28;1387;-66
2023/03/14 03:32:41;;;;;;;;;;;16.80;63.50;;;;;;5045829;28;1890;-68
2023/03/14 03:35:07;;;;;;;;;;;16.80;63.50;;;;;;5045035;28;1370;-67
2023/03/14 03:37:32;;;;;;;;;;;16.80;64.30;;;;;;5045925;28;1114;-67
2023/03/14 03:39:58;;;;;;;;;;;16.80;63.60;;;;;;5042913;28;828;-68
2023/03/14 03:42:23;;;;;;;;;;;16.80;63.50;;;;;;5046792;28;1251;-67
2023/03/14 03:44:49;;;;;;;;;;;16.80;63.50;;;;;;5045228;28;1061;-67
2023/03/14 03:47:15;;;;;;;;;;;16.80;63.50;;;;;;5039355;28;820;-67
2023/03/14 03:49:40;;;;;;;;;;;16.80;63.50;;;;;;5043163;28;820;-68
2023/03/14 03:52:06;;;;;;;;;;;16.80;63.50;;;;;;5039771;28;1906;-68
2023/03/14 03:54:31;;;;;;;;;;;16.80;63.60;;;;;;5043944;28;852;-68
2023/03/14 03:56:57;;;;;;;;;;;16.80;63.60;;;;;;5040517;28;816;-68
2023/03/14 03:59:22;;;;;;;;;;;16.80;63.50;;;;;;5039658;28;835;-68
2023/03/14 04:01:47;;;;;;;;;;;16.80;63.60;;;;;;5041188;28;946;-68
2023/03/14 04:04:13;;;;;;;;;;;16.80;63.60;;;;;;5042985;28;1204;-68
2023/03/14 04:06:39;;;;;;;;;;;16.80;63.60;;;;;;5041756;28;871;-68
2023/03/14 04:09:04;;;;;;;;;;;16.80;63.60;;;;;;5048231;28;866;-68
2023/03/14 04:11:30;;;;;;;;;;;16.80;63.60;;;;;;5041074;28;970;-68
2023/03/14 04:13:55;;;;;;;;;;;16.80;63.60;;;;;;5041182;28;1902;-68
2023/03/14 04:16:21;;;;;;;;;;;16.80;63.60;;;;;;5039700;28;891;-68
2023/03/14 04:18:47;;;;;;;;;;;16.80;63.60;;;;;;5040025;28;905;-68
2023/03/14 04:21:12;;;;;;;;;;;16.80;63.60;;;;;;5039151;28;843;-68
2023/03/14 04:23:38;;;;;;;;;;;16.80;63.60;;;;;;5047591;28;1342;-68
2023/03/14 04:26:03;;;;;;;;;;;16.80;63.70;;;;;;5040319;28;813;-68
2023/03/14 04:28:29;;;;;;;;;;;16.80;63.60;;;;;;5040258;28;919;-68
2023/03/14 04:30:54;;;;;;;;;;;16.80;63.60;;;;;;5043865;28;1030;-68
2023/03/14 04:33:20;;;;;;;;;;;16.80;63.60;;;;;;5040378;28;1960;-68
2023/03/14 04:35:45;;;;;;;;;;;16.80;63.70;;;;;;5038461;28;822;-68
2023/03/14 04:38:11;;;;;;;;;;;16.80;63.60;;;;;;5039225;28;1021;-68
2023/03/14 04:40:37;;;;;;;;;;;16.80;63.60;;;;;;5040167;28;867;-68
2023/03/14 04:43:02;;;;;;;;;;;16.80;63.60;;;;;;5039462;28;1274;-68
2023/03/14 04:45:28;;;;;;;;;;;16.80;63.60;;;;;;5040438;28;888;-68
2023/03/14 04:47:53;;;;;;;;;;;16.80;63.70;;;;;;5038671;28;904;-68
2023/03/14 04:50:19;;;;;;;;;;;16.80;63.60;;;;;;5041606;28;844;-68
2023/03/14 04:52:44;;;;;;;;;;;16.80;63.70;;;;;;5041125;28;1930;-68
2023/03/14 04:55:10;;;;;;;;;;;16.80;63.60;;;;;;5043427;28;938;-67
2023/03/14 04:57:35;;;;;;;;;;;16.80;63.70;;;;;;5039209;28;1050;-67
2023/03/14 05:00:05;;;;;;;;;;;16.80;63.70;;;;;;5037684;28;792;-68
2023/03/14 05:02:31;;;;;;;;;;;16.80;63.70;;;;;;5038033;28;1252;-68
2023/03/14 05:04:56;;;;;;;;;;;16.80;63.70;;;;;;5039608;28;919;-68
2023/03/14 05:07:22;;;;;;;;;;;16.80;63.70;;;;;;5040009;28;1002;-68
2023/03/14 05:09:47;;;;;;;;;;;16.80;63.60;;;;;;5040883;28;816;-68
2023/03/14 05:12:13;;;;;;;;;;;16.80;63.60;;;;;;5038836;28;1906;-68
2023/03/14 05:14:39;;;;;;;;;;;16.90;63.60;;;;;;5039126;28;924;-68
2023/03/14 05:17:04;;;;;;;;;;;16.90;63.50;;;;;;5038648;28;873;-68
2023/03/14 05:19:30;;;;;;;;;;;16.90;63.40;;;;;;5037009;28;935;-68
2023/03/14 05:21:55;;;;;;;;;;;16.90;63.20;;;;;;5036099;28;829;-68
2023/03/14 05:24:21;;;;;;;;;;;17.00;63.20;;;;;;5037480;28;1541;-68
2023/03/14 05:26:46;;;;;;;;;;;17.00;63.00;;;;;;5036041;28;916;-68
2023/03/14 05:29:12;;;;;;;;;;;17.00;62.90;;;;;;5039056;28;884;-68
2023/03/14 05:31:37;;;;;;;;;;;17.10;62.80;;;;;;5039736;28;833;-68
2023/03/14 05:34:03;;;;;;;;;;;17.10;62.70;;;;;;5036527;28;1902;-68
2023/03/14 05:36:28;;;;;;;;;;;17.10;62.60;;;;;;5040263;28;1069;-68
2023/03/14 05:38:54;;;;;;;;;;;17.20;62.50;;;;;;5039746;28;1446;-68
2023/03/14 05:41:19;;;;;;;;;;;17.20;62.40;;;;;;5039430;28;778;-68
2023/03/14 05:43:45;;;;;;;;;;;17.20;62.30;;;;;;5038312;28;1269;-68
2023/03/14 05:46:10;;;;;;;;;;;17.20;62.30;;;;;;5038923;28;1018;-68
2023/03/14 05:48:35;;;;;;;;;;;17.30;62.20;;;;;;5040877;28;848;-68
2023/03/14 05:51:01;;;;;;;;;;;17.30;62.10;;;;;;5039808;28;867;-68
2023/03/14 05:53:28;;;;;;;;;;;17.30;62.10;;;;;;5039552;28;1910;-68
2023/03/14 05:55:54;;;;;;;;;;;17.30;62.00;;;;;;5038468;28;815;-68
2023/03/14 05:58:19;;;;;;;;;;;17.30;61.90;;;;;;5039583;28;754;-67
2023/03/14 06:00:45;;;;;;;;;;;17.30;61.90;;;;;;5040238;28;935;-67
2023/03/14 06:03:10;;;;;;;;;;;17.30;61.80;;;;;;5033927;28;1279;-67
2023/03/14 06:05:36;;;;;;;;;;;17.40;61.80;;;;;;5034794;28;834;-68
2023/03/14 06:08:01;;;;;;;;;;;17.30;61.70;;;;;;5036021;28;789;-67
2023/03/14 06:10:27;;;;;;;;;;;17.40;61.80;;;;;;5036949;28;1076;-67
2023/03/14 06:12:52;;;;;;;;;;;17.40;61.70;;;;;;5038940;28;1997;-67
2023/03/14 06:15:17;;;;;;;;;;;17.40;61.70;;;;;;5038169;28;1340;-67
2023/03/14 06:17:43;;;;;;;;;;;17.40;61.60;;;;;;5039791;28;812;-67
2023/03/14 06:20:09;;;;;;;;;;;17.40;61.60;;;;;;5037840;28;843;-68
2023/03/14 06:22:34;;;;;;;;;;;17.50;61.60;;;;;;5038676;28;1271;-68
2023/03/14 06:24:59;;;;;;;;;;;17.40;61.60;;;;;;5038219;28;884;-68
2023/03/14 06:27:25;;;;;;;;;;;17.50;61.60;;;;;;5038443;28;963;-67
2023/03/14 06:29:50;;;;;;;;;;;17.50;61.50;;;;;;5036601;28;1199;-68
2023/03/14 06:32:16;;;;;;;;;;;17.50;61.60;;;;;;5035958;28;1910;-67
2023/03/14 06:34:41;;;;;;;;;;;17.40;61.50;;;;;;5037008;28;879;-68
2023/03/14 06:37:07;;;;;;;;;;;17.50;61.50;;;;;;5038646;28;1334;-68
2023/03/14 06:39:32;;;;;;;;;;;17.40;61.40;;;;;;5037944;28;820;-68
2023/03/14 06:41:58;;;;;;;;;;;17.50;61.50;;;;;;5038581;28;843;-68
2023/03/14 06:44:24;;;;;;;;;;;17.50;61.50;;;;;;5038456;28;1264;-68
2023/03/14 06:46:49;;;;;;;;;;;17.40;61.40;;;;;;5038235;28;919;-67
2023/03/14 06:49:15;;;;;;;;;;;17.40;61.50;;;;;;5037352;28;1633;-67
2023/03/14 06:51:40;;;;;;;;;;;17.50;61.50;;;;;;5037204;28;809;-67
2023/03/14 06:54:06;;;;;;;;;;;17.50;61.50;;;;;;5044872;28;1907;-67
2023/03/14 06:56:31;;;;;;;;;;;17.40;61.50;;;;;;5039196;28;935;-67
2023/03/14 06:58:56;;;;;;;;;;;17.40;61.50;;;;;;5037378;28;800;-67
2023/03/14 07:01:22;;;;;;;;;;;17.40;61.50;;;;;;5044854;28;1105;-67
2023/03/14 07:03:47;;;;;;;;;;;17.40;61.50;;;;;;5039141;28;1252;-67
2023/03/14 07:06:13;;;;;;;;;;;17.50;61.60;;;;;;5035167;28;904;-67
2023/03/14 07:08:39;;;;;;;;;;;17.40;61.60;;;;;;5035755;28;808;-67
2023/03/14 07:11:04;;;;;;;;;;;17.40;61.60;;;;;;5038265;28;908;-67
2023/03/14 07:13:30;;;;;;;;;;;17.40;61.70;;;;;;5037954;28;1961;-67
2023/03/14 07:15:55;;;;;;;;;;;17.40;61.70;;;;;;5035521;28;1382;-67
2023/03/14 07:18:21;;;;;;;;;;;17.40;61.70;;;;;;5032776;28;1714;-67
2023/03/14 07:20:46;;;;;;;;;;;17.40;61.70;;;;;;5036529;28;2102;-67
2023/03/14 07:23:12;;;;;;;;;;;17.40;61.70;;;;;;5040919;28;1377;-67
2023/03/14 07:25:37;;;;;;;;;;;17.40;61.80;;;;;;5042785;28;1233;-69
2023/03/14 07:28:02;;;;;;;;;;;17.40;61.80;;;;;;5040662;28;1423;-68
2023/03/14 07:30:28;;;;;;;;;;;17.40;61.80;;;;;;5040716;28;1961;-70
2023/03/14 07:32:53;;;;;;;;;;;17.40;61.80;;;;;;5039366;28;1902;-70
2023/03/14 07:35:19;;;;;;;;;;;17.40;61.80;;;;;;5042272;28;1491;-70
2023/03/14 07:37:44;;;;;;;;;;;17.40;61.90;;;;;;5044559;28;1352;-69
2023/03/14 07:40:12;;;;;;;;;;;17.40;61.90;;;;;;5041362;28;816;-69
2023/03/14 07:42:37;;;;;;;;;;;17.40;61.90;;;;;;5043651;28;1349;-69
2023/03/14 07:45:03;;;;;;;;;;;17.40;61.90;;;;;;5039494;28;879;-70
2023/03/14 07:47:29;;;;;;;;;;;17.40;62.00;;;;;;5039818;28;809;-69
2023/03/14 07:49:54;;;;;;;;;;;17.40;62.00;;;;;;5042868;28;792;-68
2023/03/14 07:52:19;;;;;;;;;;;17.30;61.90;;;;;;5040300;28;1985;-68
2023/03/14 07:54:45;;;;;;;;;;;17.30;61.90;;;;;;5039354;28;781;-68
2023/03/14 07:57:10;;;;;;;;;;;17.40;62.00;;;;;;5041669;28;908;-68
2023/03/14 07:59:36;;;;;;;;;;;17.30;62.00;;;;;;5042533;28;875;-69
2023/03/14 08:02:01;;;;;;;;;;;17.30;62.00;;;;;;5041829;28;824;-68
2023/03/14 08:04:27;;;;;;;;;;;17.30;62.00;;;;;;5041324;28;1406;-69
2023/03/14 08:06:54;;;;;;;;;;;17.30;62.00;;;;;;5040155;28;947;-68
2023/03/14 08:09:19;;;;;;;;;;;17.30;62.00;;;;;;5041885;28;1277;-69
2023/03/14 08:11:45;;;;;;;;;;;17.30;62.00;;;;;;5036546;28;845;-69
2023/03/14 08:14:11;;;;;;;;;;;17.30;62.00;;;;;;5040175;28;1902;-68
2023/03/14 08:16:36;;;;;;;;;;;17.30;62.00;;;;;;5041072;28;836;-69
2023/03/14 08:19:02;;;;;;;;;;;17.30;62.10;;;;;;5044327;28;872;-68
2023/03/14 08:21:27;;;;;;;;;;;17.30;62.00;;;;;;5040433;28;855;-68
2023/03/14 08:23:53;;;;;;;;;;;17.30;62.10;;;;;;5040636;28;1259;-69
2023/03/14 08:26:18;;;;;;;;;;;17.30;62.10;;;;;;5041753;28;855;-69
2023/03/14 08:28:43;;;;;;;;;;;17.30;62.10;;;;;;5044269;28;1061;-69
2023/03/14 08:31:09;;;;;;;;;;;17.30;62.10;;;;;;5042800;28;811;-70
2023/03/14 08:33:34;;;;;;;;;;;17.30;62.10;;;;;;5038461;28;1918;-69
2023/03/14 08:36:00;;;;;;;;;;;17.30;62.10;;;;;;5040597;28;844;-69
2023/03/14 08:38:25;;;;;;;;;;;17.30;62.20;;;;;;5040873;28;1366;-69
2023/03/14 08:40:58;;;;;;;;;;;17.30;62.20;;;;;;5041281;28;861;-69
2023/03/14 08:43:23;;;;;;;;;;;17.30;62.20;;;;;;5037237;28;1319;-69
2023/03/14 08:45:49;;;;;;;;;;;17.30;62.20;;;;;;5039782;28;879;-69
2023/03/14 08:48:14;;;;;;;;;;;17.30;62.20;;;;;;5040856;28;804;-70
2023/03/14 08:50:40;;;;;;;;;;;17.30;62.20;;;;;;5040736;28;880;-70
2023/03/14 08:53:05;;;;;;;;;;;17.30;62.30;;;;;;5041077;28;1899;-70
2023/03/14 08:55:30;;;;;;;;;;;17.30;62.30;;;;;;5037974;28;863;-70
2023/03/14 08:57:56;;;;;;;;;;;17.30;62.30;;;;;;5040307;28;880;-70
2023/03/14 09:00:21;;;;;;;;;;;17.30;62.30;;;;;;5041939;28;871;-70
2023/03/14 09:02:47;;;;;;;;;;;17.30;62.30;;;;;;5039066;28;1254;-70
2023/03/14 09:05:12;;;;;;;;;;;17.30;62.30;;;;;;5039582;28;1269;-70
2023/03/14 09:07:38;;;;;;;;;;;17.30;62.40;;;;;;5038960;28;1651;-70
2023/03/14 09:10:04;;;;;;;;;;;17.20;62.30;;;;;;5039190;28;863;-70
2023/03/14 09:12:30;;;;;;;;;;;17.30;62.30;;;;;;5039786;28;1906;-70
2023/03/14 09:14:55;;;;;;;;;;;17.20;62.30;;;;;;5039209;28;1285;-70
2023/03/14 09:17:21;;;;;;;;;;;17.30;62.40;;;;;;5037927;28;835;-70
2023/03/14 09:19:46;;;;;;;;;;;17.30;62.30;;;;;;5040069;28;847;-70
2023/03/14 09:22:12;;;;;;;;;;;17.30;62.40;;;;;;5037922;28;1291;-70
2023/03/14 09:24:37;;;;;;;;;;;17.30;62.30;;;;;;5039477;28;828;-70
2023/03/14 09:27:03;;;;;;;;;;;17.30;62.30;;;;;;5039594;28;931;-70
2023/03/14 09:29:28;;;;;;;;;;;17.30;62.30;;;;;;5038754;28;882;-70
2023/03/14 09:31:54;;;;;;;;;;;17.30;62.20;;;;;;5039089;28;1914;-70
2023/03/14 09:34:19;;;;;;;;;;;17.30;62.10;;;;;;5037529;28;1333;-70
2023/03/14 09:36:45;;;;;;;;;;;17.30;62.10;;;;;;5040707;28;1357;-69
2023/03/14 09:39:11;;;;;;;;;;;17.30;62.00;;;;;;5038292;28;886;-66
2023/03/14 09:41:40;;;;;;;;;;;17.40;62.10;;;;;;5037205;28;789;-67
2023/03/14 09:44:15;;;;;;;;;;;17.40;62.10;;;;;;5039477;28;1611;-66
2023/03/14 09:46:41;;;;;;;;;;;17.40;60.00;;;;;;5038710;28;1255;-67
2023/03/14 09:49:10;;;;;;;;;;;17.40;58.80;;;;;;5038378;28;833;-67
2023/03/14 09:51:36;;;;;;;;;;;17.40;59.20;;;;;;5041603;28;958;-67
2023/03/14 09:54:02;;;;;;;;;;;17.40;58.90;;;;;;5037263;28;1894;-67
2023/03/14 09:56:28;;;;;;;;;;;17.40;58.50;;;;;;5037860;28;910;-67
2023/03/14 09:58:57;;;;;;;;;;;17.50;59.10;;;;;;5038843;28;919;-66
2023/03/14 10:01:24;;;;;;;;;;;17.50;58.40;;;;;;5034413;28;937;-67
2023/03/14 10:03:49;;;;;;;;;;;17.50;58.50;;;;;;5037632;28;1751;-66
2023/03/14 10:06:15;;;;;;;;;;;17.40;58.20;;;;;;5039315;28;1497;-67
2023/03/14 10:08:44;;;;;;;;;;;17.50;57.70;;;;;;5037316;28;1474;-68
2023/03/14 10:11:18;;;;;;;;;;;17.40;57.40;;;;;;5039072;28;1287;-67
2023/03/14 10:14:07;;;;;;;;;;;17.50;57.20;;;;;;5041606;28;1915;-66
2023/03/14 10:16:37;;;;;;;;;;;17.40;57.40;;;;;;5033391;28;1446;-67
2023/03/14 10:19:06;;;;;;;;;;;17.40;57.20;;;;;;5036850;28;1420;-67
2023/03/14 10:21:36;;;;;;;;;;;17.40;57.70;;;;;;5036978;28;915;-66
2023/03/14 10:24:08;;;;;;;;;;;17.40;57.80;;;;;;5037774;28;1257;-67
2023/03/14 10:26:34;;;;;;;;;;;17.40;57.60;;;;;;5038223;28;896;-67
2023/03/14 10:29:03;;;;;;;;;;;17.40;58.10;;;;;;5036299;28;955;-67
2023/03/14 10:31:29;;;;;;;;;;;17.40;57.60;;;;;;5038926;28;808;-67
2023/03/14 10:34:02;;;;;;;;;;;17.40;57.70;;;;;;5038646;28;1906;-68
2023/03/14 10:36:28;;;;;;;;;;;17.40;57.40;;;;;;5034409;28;794;-67
2023/03/14 10:39:17;;;;;;;;;;;17.40;57.10;;;;;;5043534;28;1615;-67
2023/03/14 10:42:03;;;;;;;;;;;17.40;57.60;;;;;;5033526;28;1278;-67
2023/03/14 10:44:28;;;;;;;;;;;17.40;57.20;;;;;;5035371;28;1293;-67
2023/03/14 10:46:55;;;;;;;;;;;17.40;56.40;;;;;;5039422;28;801;-67
2023/03/14 10:49:36;;;;;;;;;;;17.30;56.40;;;;;;5038426;28;840;-67
2023/03/14 10:52:14;;;;;;;;;;;17.30;56.80;;;;;;5039854;28;1905;-67
2023/03/14 10:54:39;;;;;;;;;;;17.30;57.20;;;;;;5040542;28;860;-68
2023/03/14 10:57:06;;;;;;;;;;;17.30;56.30;;;;;;5042190;28;840;-67
2023/03/14 10:59:39;;;;;;;;;;;17.30;56.50;;;;;;5040745;28;832;-67
2023/03/14 11:02:18;;;;;;;;;;;17.30;56.50;;;;;;5041594;28;1345;-67
2023/03/14 11:05:04;;;;;;;;;;;17.30;56.90;;;;;;5052371;28;970;-68
2023/03/14 11:07:39;;;;;;;;;;;17.30;55.80;;;;;;5049321;28;904;-67
2023/03/14 11:10:17;;;;;;;;;;;17.20;55.10;;;;;;5047628;28;854;-67
2023/03/14 11:12:51;;;;;;;;;;;17.20;55.50;;;;;;5036340;28;1902;-68
2023/03/14 11:15:19;;;;;;;;;;;17.20;55.50;;;;;;5042526;28;865;-69
2023/03/14 11:18:04;;;;;;;;;;;17.20;55.60;;;;;;5042699;28;820;-69
2023/03/14 11:20:47;;;;;;;;;;;17.20;55.60;;;;;;5042228;28;1221;-69
2023/03/14 11:23:14;;;;;;;;;;;17.20;56.00;;;;;;5042784;28;1704;-69
2023/03/14 11:25:44;;;;;;;;;;;17.20;56.30;;;;;;5046111;28;969;-69
2023/03/14 11:28:23;;;;;;;;;;;17.10;56.50;;;;;;5042725;28;824;-69
2023/03/14 11:30:52;;;;;;;;;;;17.10;56.70;;;;;;5042853;28;870;-69
2023/03/14 11:33:24;;;;;;;;;;;17.10;57.00;;;;;;5038694;28;1965;-69
2023/03/14 11:35:55;;;;;;;;;;;17.10;57.20;;;;;;5055526;28;1223;-68
2023/03/14 11:38:27;;;;;;;;;;;17.10;57.30;;;;;;5036950;28;834;-68
2023/03/14 11:40:53;;;;;;;;;;;17.10;57.50;;;;;;5044462;28;1037;-69
2023/03/14 11:43:20;;;;;;;;;;;17.10;57.70;;;;;;5044374;28;1280;-69
2023/03/14 11:45:45;;;;;;;;;;;17.10;57.80;;;;;;5046080;28;967;-69
2023/03/14 11:48:30;;;;;;;;;;;17.10;57.90;;;;;;5039277;28;927;-69
2023/03/14 11:50:56;;;;;;;;;;;17.10;58.10;;;;;;5040627;28;1048;-69
2023/03/14 11:53:25;;;;;;;;;;;17.10;58.20;;;;;;5031156;28;1938;-70
2023/03/14 11:55:51;;;;;;;;;;;17.10;58.30;;;;;;5038116;28;1366;-69
2023/03/14 11:58:18;;;;;;;;;;;17.10;58.40;;;;;;5046176;28;883;-70
2023/03/14 12:00:44;;;;;;;;;;;17.10;58.50;;;;;;5038815;28;863;-70
2023/03/14 12:03:28;;;;;;;;;;;17.10;58.60;;;;;;5042058;28;1288;-70
2023/03/14 12:06:12;;;;;;;;;;;17.00;58.60;;;;;;5042533;28;966;-69
2023/03/14 12:08:38;;;;;;;;;;;17.00;58.70;;;;;;5039747;28;876;-70
2023/03/14 12:11:08;;;;;;;;;;;17.00;58.80;;;;;;5041960;28;828;-70
2023/03/14 12:13:33;;;;;;;;;;;17.00;58.80;;;;;;5048365;28;1901;-69
2023/03/14 12:15:59;;;;;;;;;;;17.00;58.90;;;;;;5039353;28;1268;-69
2023/03/14 12:18:31;;;;;;;;;;;17.00;59.00;;;;;;5042650;28;844;-70
2023/03/14 12:21:00;;;;;;;;;;;17.00;59.00;;;;;;5047270;28;1331;-69
2023/03/14 12:23:26;;;;;;;;;;;17.10;59.10;;;;;;5039416;28;1288;-70
2023/03/14 12:26:07;;;;;;;;;;;17.00;59.10;;;;;;5039209;28;943;-69
2023/03/14 12:28:32;;;;;;;;;;;17.00;59.20;;;;;;5047550;28;1196;-69
2023/03/14 12:31:05;;;;;;;;;;;17.00;59.20;;;;;;5047083;28;1397;-70
2023/03/14 12:33:30;;;;;;;;;;;17.00;59.30;;;;;;5038201;28;1942;-70
2023/03/14 12:36:00;;;;;;;;;;;17.00;59.30;;;;;;5039105;28;819;-70
2023/03/14 12:38:31;;;;;;;;;;;17.00;59.40;;;;;;5041222;28;1380;-69
2023/03/14 12:41:26;;;;;;;;;;;17.00;59.40;;;;;;5050845;28;1281;-69
2023/03/14 12:43:52;;;;;;;;;;;17.00;59.50;;;;;;5031383;28;1339;-70
2023/03/14 12:46:17;;;;;;;;;;;17.00;59.50;;;;;;5038752;28;816;-69
2023/03/14 12:49:01;;;;;;;;;;;17.00;59.60;;;;;;5039109;28;863;-69
2023/03/14 12:51:39;;;;;;;;;;;17.00;59.60;;;;;;5042487;28;1084;-69
2023/03/14 12:54:20;;;;;;;;;;;17.00;59.70;;;;;;5042926;28;1906;-69
2023/03/14 12:56:46;;;;;;;;;;;17.00;59.70;;;;;;5038589;28;943;-69
2023/03/14 12:59:11;;;;;;;;;;;17.00;59.80;;;;;;5041221;28;873;-69
2023/03/14 13:01:37;;;;;;;;;;;17.00;59.80;;;;;;5044102;28;912;-69
2023/03/14 13:04:03;;;;;;;;;;;17.00;59.80;;;;;;5039115;28;1354;-69
2023/03/14 13:06:46;;;;;;;;;;;17.00;59.80;;;;;;5029867;28;1581;-69
2023/03/14 13:09:33;;;;;;;;;;;17.00;59.90;;;;;;5037329;28;1038;-69
2023/03/14 13:12:10;;;;;;;;;;;17.00;59.90;;;;;;5038726;28;1910;-70
2023/03/14 13:14:35;;;;;;;;;;;16.90;59.90;;;;;;5026736;28;1291;-69
2023/03/14 13:17:01;;;;;;;;;;;16.90;60.00;;;;;;5037855;28;2529;-70
2023/03/14 13:19:27;;;;;;;;;;;16.90;60.00;;;;;;5043904;28;950;-70
2023/03/14 13:22:02;;;;;;;;;;;16.90;60.00;;;;;;5026179;28;1462;-71
2023/03/14 13:24:28;;;;;;;;;;;16.90;60.10;;;;;;5037856;28;1310;-71
2023/03/14 13:26:54;;;;;;;;;;;16.90;60.10;;;;;;5041454;28;875;-70
2023/03/14 13:29:20;;;;;;;;;;;16.90;60.20;;;;;;5037237;28;824;-70
2023/03/14 13:31:46;;;;;;;;;;;16.90;60.20;;;;;;5026577;28;1875;-69
2023/03/14 13:34:12;;;;;;;;;;;16.90;60.20;;;;;;5040000;28;1890;-69
2023/03/14 13:36:37;;;;;;;;;;;17.00;60.30;;;;;;5040235;28;1750;-69
2023/03/14 13:39:04;;;;;;;;;;;16.90;60.90;;;;;;5046754;28;1834;-69
2023/03/14 13:41:30;;;;;;;;;;;17.00;60.30;;;;;;5042986;28;952;-70
2023/03/14 13:44:01;;;;;;;;;;;17.00;60.20;;;;;;5035630;28;1252;-70
2023/03/14 13:46:26;;;;;;;;;;;17.00;60.20;;;;;;5038977;28;1006;-70
2023/03/14 13:48:53;;;;;;;;;;;17.00;60.10;;;;;;5039406;28;1030;-69
2023/03/14 13:51:19;;;;;;;;;;;17.10;60.10;;;;;;5034998;28;896;-69
2023/03/14 13:53:49;;;;;;;;;;;17.10;60.10;;;;;;5038727;28;1957;-69
2023/03/14 13:56:14;;;;;;;;;;;17.10;60.00;;;;;;5040407;28;892;-69
2023/03/14 13:58:40;;;;;;;;;;;17.10;59.90;;;;;;5041005;28;888;-69
2023/03/14 14:01:10;;;;;;;;;;;17.10;59.90;;;;;;5039327;28;935;-68
2023/03/14 14:03:37;;;;;;;;;;;17.20;59.90;;;;;;5034245;28;1357;-69
2023/03/14 14:06:02;;;;;;;;;;;17.20;59.80;;;;;;5046072;28;920;-68
2023/03/14 14:08:28;;;;;;;;;;;17.20;59.70;;;;;;5039907;28;899;-68
2023/03/14 14:10:58;;;;;;;;;;;17.20;59.70;;;;;;5039406;28;1375;-68
2023/03/14 14:13:23;;;;;;;;;;;17.30;59.70;;;;;;5040998;28;1959;-69
2023/03/14 14:15:49;;;;;;;;;;;17.30;60.30;;;;;;5037096;28;1101;-69
2023/03/14 14:18:15;;;;;;;;;;;17.30;59.60;;;;;;5037721;28;1367;-69
2023/03/14 14:20:42;;;;;;;;;;;17.30;59.50;;;;;;5041937;28;860;-68
2023/03/14 14:23:12;;;;;;;;;;;17.30;59.50;;;;;;5038443;28;1305;-69
2023/03/14 14:25:37;;;;;;;;;;;17.30;59.50;;;;;;5038460;28;851;-68
2023/03/14 14:28:23;;;;;;;;;;;17.40;59.50;;;;;;5039408;28;902;-68
2023/03/14 14:30:59;;;;;;;;;;;17.40;59.50;;;;;;5039025;28;864;-69
2023/03/14 14:33:24;;;;;;;;;;;17.40;60.10;;;;;;5062589;28;1961;-69
2023/03/14 14:35:59;;;;;;;;;;;17.40;59.40;;;;;;5042662;28;888;-69